Terminal Aerodrome Forecast
Issued by NWS St Louis, MO

Home | Current Version | Previous Version | Text Only | Print | Product List | Glossary On
Versions: 1 2 3 4 5 6 7 8 9 10 11 12 13 14 15 16 17 18 19 20 21 22 23 24 25
000
FTUS43 KLSX 230904 AAA
TAFSTL
TAF AMD
KSTL 230904Z 2309/2412 20008KT P6SM SCT015 OVC080
     FM231200 23008KT P6SM VCTS BKN050CB
     FM231500 30007KT P6SM VCSH OVC025
     FM231700 35009KT P6SM BKN025
     FM231900 35011G18KT P6SM BKN035
     FM240100 33007KT P6SM FEW250=

USA.gov is the U.S. government's official web portal to all federal, state and local government web resources and services.